createdAt,value
2022-08-05T00:01:35.455Z,6.70
2022-08-05T00:04:05.202Z,5.70
2022-08-05T00:06:36.472Z,5.40
2022-08-05T00:09:14.786Z,5.60
2022-08-05T00:11:48.764Z,4.90
2022-08-05T00:14:27.632Z,4.80
2022-08-05T00:19:33.684Z,4.90
2022-08-05T00:22:11.294Z,4.70
2022-08-05T00:24:42.194Z,5.10
2022-08-05T00:27:14.061Z,4.70
2022-08-05T00:29:45.131Z,4.90
2022-08-05T00:32:14.947Z,4.80
2022-08-05T00:35:04.312Z,5.20
2022-08-05T00:37:50.650Z,5.00
2022-08-05T00:40:27.865Z,5.10
2022-08-05T00:43:00.008Z,4.90
2022-08-05T00:45:38.801Z,4.90
2022-08-05T00:48:13.388Z,5.30
2022-08-05T00:50:44.233Z,5.10
2022-08-05T00:53:45.050Z,5.00
2022-08-05T00:56:05.527Z,4.80
2022-08-05T00:58:36.828Z,4.90
2022-08-05T01:01:08.534Z,5.00
2022-08-05T01:03:38.666Z,4.80
2022-08-05T01:06:14.164Z,5.40
2022-08-05T01:08:44.610Z,5.00
2022-08-05T01:11:37.282Z,4.90
2022-08-05T01:14:34.750Z,5.10
2022-08-05T01:17:09.007Z,5.00
2022-08-05T01:20:00.962Z,5.30
2022-08-05T01:22:47.008Z,5.10
2022-08-05T01:25:39.663Z,5.30
2022-08-05T01:28:41.027Z,5.00
2022-08-05T01:31:28.062Z,5.10
2022-08-05T01:34:08.435Z,5.00
2022-08-05T01:36:47.046Z,5.60
2022-08-05T01:39:47.169Z,5.40
2022-08-05T01:42:09.719Z,5.30
2022-08-05T01:44:39.240Z,5.20
2022-08-05T01:47:10.622Z,5.50
2022-08-05T01:50:00.413Z,5.40
2022-08-05T01:52:32.375Z,5.30
2022-08-05T01:55:05.492Z,5.50
2022-08-05T01:58:29.847Z,5.30
2022-08-05T02:00:30.489Z,5.20
2022-08-05T02:03:04.285Z,5.50
2022-08-05T02:05:36.563Z,5.80
2022-08-05T02:08:05.560Z,6.00
2022-08-05T02:10:44.661Z,5.90
2022-08-05T02:13:21.039Z,5.60
2022-08-05T02:16:22.103Z,5.70
2022-08-05T02:18:56.609Z,5.40
2022-08-05T02:21:52.565Z,6.20
2022-08-05T02:24:26.808Z,5.70
2022-08-05T02:26:58.191Z,6.00
2022-08-05T02:29:59.703Z,5.80
2022-08-05T02:32:24.064Z,5.80
2022-08-05T02:35:02.024Z,5.40
2022-08-05T02:37:47.623Z,5.60
2022-08-05T02:40:24.351Z,5.80
2022-08-05T02:42:55.544Z,5.90
2022-08-05T02:45:25.414Z,5.90
2022-08-05T02:48:07.357Z,5.80
2022-08-05T02:50:47.030Z,6.10
2022-08-05T02:53:19.418Z,6.10
2022-08-05T02:55:59.537Z,6.20
2022-08-05T02:58:30.292Z,5.60
2022-08-05T03:01:02.269Z,6.10
2022-08-05T03:03:34.086Z,6.00
2022-08-05T03:06:55.444Z,5.90
2022-08-05T03:09:12.531Z,6.10
2022-08-05T03:11:54.822Z,6.60
2022-08-05T03:14:25.421Z,5.60
2022-08-05T03:16:54.169Z,6.30
2022-08-05T03:19:33.993Z,6.20
2022-08-05T03:22:05.093Z,5.90
2022-08-05T03:24:47.193Z,5.60
2022-08-05T03:27:20.682Z,5.70
2022-08-05T03:30:08.191Z,5.70
2022-08-05T03:32:37.698Z,5.70
2022-08-05T03:35:06.144Z,5.90
2022-08-05T03:37:41.009Z,6.00
2022-08-05T03:40:15.488Z,6.00
2022-08-05T03:42:53.076Z,6.00
2022-08-05T03:45:23.250Z,5.70
2022-08-05T03:47:51.841Z,6.30
2022-08-05T03:50:28.714Z,6.10
2022-08-05T03:55:49.952Z,5.40
2022-08-05T03:56:11.591Z,5.50
2022-08-05T03:58:47.001Z,5.80
2022-08-05T04:01:20.920Z,5.80
2022-08-05T04:04:08.845Z,5.70
2022-08-05T04:06:47.867Z,5.60
2022-08-05T04:09:25.803Z,6.30
2022-08-05T04:11:56.526Z,5.40
2022-08-05T04:14:30.356Z,5.70
2022-08-05T04:17:00.709Z,5.80
2022-08-05T04:19:29.422Z,5.70
2022-08-05T04:22:09.917Z,5.70
2022-08-05T04:24:43.789Z,5.70
2022-08-05T04:27:13.969Z,6.30
2022-08-05T04:29:43.150Z,5.80
2022-08-05T04:32:10.763Z,6.30
2022-08-05T04:34:42.608Z,5.90
2022-08-05T04:37:11.256Z,5.90
2022-08-05T04:39:39.235Z,6.20
2022-08-05T04:42:09.138Z,6.00
2022-08-05T04:44:36.968Z,6.30
2022-08-05T04:47:08.907Z,6.50
2022-08-05T04:50:01.474Z,6.30
2022-08-05T04:52:28.205Z,6.20
2022-08-05T04:54:57.303Z,6.20
2022-08-05T04:57:28.980Z,6.00
2022-08-05T04:59:58.660Z,5.90
2022-08-05T05:02:36.305Z,6.30
2022-08-05T05:05:17.038Z,6.10
2022-08-05T05:08:01.540Z,6.40
2022-08-05T05:10:33.284Z,6.30
2022-08-05T05:13:04.018Z,6.10
2022-08-05T05:15:57.059Z,6.20
2022-08-05T05:18:31.405Z,6.10
2022-08-05T05:21:03.561Z,6.10
2022-08-05T05:23:39.367Z,6.30
2022-08-05T05:26:19.697Z,5.80
2022-08-05T05:28:56.997Z,5.90
2022-08-05T05:31:25.201Z,6.10
2022-08-05T05:34:02.162Z,5.60
2022-08-05T05:36:31.698Z,6.00
2022-08-05T05:38:59.517Z,5.90
2022-08-05T05:41:40.732Z,6.20
2022-08-05T05:44:35.817Z,6.00
2022-08-05T05:46:58.402Z,6.20
2022-08-05T05:49:33.075Z,5.60
2022-08-05T05:52:01.331Z,5.50
2022-08-05T05:54:35.040Z,5.70
2022-08-05T05:57:19.768Z,5.60
2022-08-05T05:59:48.782Z,5.40
2022-08-05T06:02:17.173Z,5.40
2022-08-05T06:07:41.264Z,5.40
2022-08-05T06:10:11.221Z,5.30
2022-08-05T06:12:42.247Z,5.50
2022-08-05T06:15:23.537Z,5.20
2022-08-05T06:17:53.315Z,5.10
2022-08-05T06:20:21.900Z,5.50
2022-08-05T06:22:49.939Z,5.10
2022-08-05T06:25:25.322Z,5.30
2022-08-05T06:28:12.351Z,5.20
2022-08-05T06:33:19.053Z,5.00
2022-08-05T06:36:03.841Z,5.10
2022-08-05T06:38:36.399Z,5.00
2022-08-05T06:41:07.893Z,5.20
2022-08-05T06:43:57.412Z,5.00
2022-08-05T06:46:29.747Z,4.60
2022-08-05T06:49:00.844Z,5.20
2022-08-05T06:51:30.998Z,4.90
2022-08-05T06:54:01.654Z,4.90
2022-08-05T06:56:34.290Z,4.70
2022-08-05T06:59:09.422Z,4.90
2022-08-05T07:01:40.883Z,4.70
2022-08-05T07:04:10.767Z,4.90
2022-08-05T07:06:42.299Z,4.60
2022-08-05T07:09:09.890Z,4.50
2022-08-05T07:11:39.791Z,4.60
2022-08-05T07:14:29.395Z,4.60
2022-08-05T07:17:59.398Z,5.20
2022-08-05T07:20:32.106Z,5.60
2022-08-05T07:22:38.830Z,5.20
2022-08-05T07:25:24.010Z,5.40
2022-08-05T07:28:02.353Z,4.90
2022-08-05T07:30:39.126Z,4.70
2022-08-05T07:33:15.776Z,5.30
2022-08-05T07:36:03.138Z,5.00
2022-08-05T07:38:43.758Z,4.70
2022-08-05T07:42:14.418Z,4.90
2022-08-05T07:44:14.312Z,4.70
2022-08-05T07:46:49.400Z,4.80
2022-08-05T07:49:19.103Z,4.60
2022-08-05T07:51:54.056Z,4.60
2022-08-05T07:54:30.903Z,4.90
2022-08-05T07:57:17.575Z,5.20
2022-08-05T07:59:52.318Z,4.60
2022-08-05T08:02:30.840Z,4.10
2022-08-05T08:05:00.421Z,4.70
2022-08-05T08:07:29.192Z,4.50
2022-08-05T08:10:07.920Z,4.20
2022-08-05T08:12:49.387Z,4.40
2022-08-05T08:15:17.740Z,5.30
2022-08-05T08:18:09.731Z,4.90
2022-08-05T08:21:00.568Z,4.60
2022-08-05T08:24:01.606Z,4.90
2022-08-05T08:26:29.403Z,5.70
2022-08-05T08:29:09.803Z,6.20
2022-08-05T08:31:48.406Z,6.00
2022-08-05T08:34:30.178Z,5.20
2022-08-05T08:37:04.607Z,5.00
2022-08-05T08:39:37.238Z,5.50
2022-08-05T08:42:32.381Z,5.90
2022-08-05T08:45:24.264Z,4.50
2022-08-05T08:48:12.752Z,7.10
2022-08-05T08:51:04.084Z,4.80
2022-08-05T08:53:28.966Z,5.10
2022-08-05T08:56:03.141Z,5.70
2022-08-05T08:58:37.104Z,5.00
2022-08-05T09:01:16.728Z,5.30
2022-08-05T09:03:57.610Z,4.70
2022-08-05T09:06:29.849Z,4.10
2022-08-05T09:09:00.542Z,4.50
2022-08-05T09:11:51.394Z,5.50
2022-08-05T09:14:56.546Z,4.70
2022-08-05T09:17:41.021Z,4.80
2022-08-05T09:20:02.881Z,4.20
2022-08-05T09:23:08.937Z,4.00
2022-08-05T09:26:02.755Z,3.90
2022-08-05T09:28:32.112Z,4.00
2022-08-05T09:31:22.458Z,3.80
2022-08-05T09:33:58.437Z,3.90
2022-08-05T09:36:56.268Z,4.40
2022-08-05T09:39:45.215Z,3.90
2022-08-05T09:42:27.704Z,4.20
2022-08-05T09:45:03.282Z,4.60
2022-08-05T09:47:55.351Z,3.70
2022-08-05T09:50:38.927Z,4.10
2022-08-05T09:53:22.721Z,3.40
2022-08-05T09:56:11.417Z,3.90
2022-08-05T09:58:41.650Z,3.70
2022-08-05T10:01:15.197Z,4.70
2022-08-05T10:04:10.711Z,4.60
2022-08-05T10:06:40.620Z,4.40
2022-08-05T10:09:27.418Z,4.30
2022-08-05T10:12:18.459Z,3.70
2022-08-05T10:15:16.296Z,3.10
2022-08-05T10:18:03.380Z,3.90
2022-08-05T10:20:33.672Z,4.50
2022-08-05T10:23:01.927Z,4.00
2022-08-05T10:25:31.182Z,3.90
2022-08-05T10:28:13.339Z,4.10
2022-08-05T10:32:52.142Z,4.20
2022-08-05T10:33:36.119Z,11.00
2022-08-05T10:36:05.895Z,5.90
2022-08-05T10:38:35.672Z,5.30
2022-08-05T10:41:29.050Z,5.40
2022-08-05T10:44:20.199Z,6.30
2022-08-05T10:46:54.265Z,5.10
2022-08-05T10:49:26.845Z,4.20
2022-08-05T10:52:02.611Z,8.80
2022-08-05T10:54:56.176Z,4.90
2022-08-05T10:57:31.877Z,4.30
2022-08-05T11:00:22.845Z,4.50
2022-08-05T11:03:23.260Z,4.50
2022-08-05T11:06:15.344Z,3.70
2022-08-05T11:09:16.733Z,4.20
2022-08-05T11:11:52.611Z,3.60
2022-08-05T11:14:57.667Z,4.00
2022-08-05T11:17:57.515Z,3.70
2022-08-05T11:20:34.358Z,3.60
2022-08-05T11:24:03.091Z,3.70
2022-08-05T11:26:28.670Z,3.60
2022-08-05T11:29:11.841Z,3.30
2022-08-05T11:31:56.338Z,3.60
2022-08-05T11:34:50.919Z,3.50
2022-08-05T11:38:29.639Z,3.10
2022-08-05T11:41:03.618Z,3.20
2022-08-05T11:44:07.442Z,3.30
2022-08-05T11:46:58.241Z,3.80
2022-08-05T11:49:38.115Z,3.60
2022-08-05T11:52:08.643Z,3.00
2022-08-05T11:54:41.453Z,3.10
2022-08-05T11:57:26.077Z,3.30
2022-08-05T11:59:55.723Z,3.50
2022-08-05T12:02:31.511Z,3.30
2022-08-05T12:05:07.189Z,3.10
2022-08-05T12:08:08.296Z,3.90
2022-08-05T12:10:43.053Z,4.00
2022-08-05T12:13:28.042Z,3.60
2022-08-05T12:16:14.652Z,3.60
2022-08-05T12:18:49.062Z,3.40
2022-08-05T12:21:31.861Z,3.10
2022-08-05T12:24:06.892Z,3.50
2022-08-05T12:26:47.349Z,3.00
2022-08-05T12:29:17.853Z,3.70
2022-08-05T12:31:54.498Z,3.10
2022-08-05T12:34:28.869Z,3.00
2022-08-05T12:37:07.384Z,3.70
2022-08-05T12:39:38.775Z,3.50
2022-08-05T12:42:16.957Z,3.60
2022-08-05T12:44:47.623Z,3.80
2022-08-05T12:47:32.812Z,2.70
2022-08-05T12:50:14.208Z,3.00
2022-08-05T12:52:42.894Z,2.50
2022-08-05T12:55:28.323Z,2.60
2022-08-05T12:58:38.175Z,2.40
2022-08-05T13:02:04.061Z,2.80
2022-08-05T13:03:41.511Z,2.40
2022-08-05T13:06:16.033Z,2.20
2022-08-05T13:08:50.818Z,2.60
2022-08-05T13:12:01.829Z,2.40
2022-08-05T13:14:36.454Z,2.80
2022-08-05T13:17:41.701Z,3.10
2022-08-05T13:20:16.528Z,2.70
2022-08-05T13:22:49.478Z,1.90
2022-08-05T13:25:22.249Z,1.90
2022-08-05T13:28:06.716Z,1.60
2022-08-05T13:30:39.109Z,1.90
2022-08-05T13:33:07.364Z,2.10
2022-08-05T13:35:42.756Z,1.80
2022-08-05T13:38:20.247Z,2.00
2022-08-05T13:41:00.269Z,1.80
2022-08-05T13:43:44.246Z,2.70
2022-08-05T13:46:14.144Z,2.00
2022-08-05T13:48:57.875Z,1.90
2022-08-05T13:51:29.668Z,2.00
2022-08-05T13:54:12.473Z,1.80
2022-08-05T13:56:45.398Z,2.90
2022-08-05T13:59:26.879Z,2.50
2022-08-05T14:01:58.708Z,2.10
2022-08-05T14:04:49.694Z,2.60
2022-08-05T14:07:59.657Z,2.20
2022-08-05T14:10:19.207Z,2.60
2022-08-05T14:12:57.117Z,2.40
2022-08-05T14:16:04.664Z,2.60
2022-08-05T14:18:17.467Z,2.00
2022-08-05T14:20:48.124Z,2.40
2022-08-05T14:23:23.858Z,2.30
2022-08-05T14:25:58.436Z,2.10
2022-08-05T14:28:28.672Z,1.80
2022-08-05T14:31:00.605Z,2.20
2022-08-05T14:33:32.687Z,2.10
2022-08-05T14:36:21.373Z,2.30
2022-08-05T14:41:18.654Z,2.10
2022-08-05T14:44:01.645Z,2.30
2022-08-05T14:46:35.304Z,2.00
2022-08-05T14:49:07.200Z,2.30
2022-08-05T14:51:38.113Z,1.80
2022-08-05T14:54:29.983Z,1.70
2022-08-05T14:56:55.780Z,1.90
2022-08-05T14:59:23.697Z,1.60
2022-08-05T15:01:51.529Z,2.40
2022-08-05T15:04:22.435Z,2.60
2022-08-05T15:06:51.130Z,2.10
2022-08-05T15:09:51.374Z,1.90
2022-08-05T15:12:17.042Z,1.70
2022-08-05T15:14:50.325Z,1.60
2022-08-05T15:17:46.896Z,2.10
2022-08-05T15:20:15.589Z,1.70
2022-08-05T15:22:54.029Z,2.10
2022-08-05T15:25:50.910Z,2.00
2022-08-05T15:28:14.867Z,1.80
2022-08-05T15:30:45.750Z,2.20
2022-08-05T15:34:18.917Z,2.60
2022-08-05T15:36:05.101Z,2.30
2022-08-05T15:38:41.832Z,2.20
2022-08-05T15:41:23.188Z,1.70
2022-08-05T15:43:54.718Z,2.50
2022-08-05T15:46:24.734Z,2.40
2022-08-05T15:49:00.936Z,2.20
2022-08-05T15:52:09.950Z,2.30
2022-08-05T15:54:35.026Z,2.20
2022-08-05T15:57:07.337Z,1.90
2022-08-05T15:59:36.602Z,2.10
2022-08-05T16:02:09.571Z,1.80
2022-08-05T16:04:43.463Z,2.60
2022-08-05T16:07:12.102Z,2.10
2022-08-05T16:09:43.477Z,2.30
2022-08-05T16:12:11.695Z,2.30
2022-08-05T16:14:39.950Z,2.10
2022-08-05T16:17:07.740Z,2.20
2022-08-05T16:20:05.576Z,2.50
2022-08-05T16:22:27.728Z,2.40
2022-08-05T16:25:08.052Z,2.30
2022-08-05T16:28:00.116Z,2.40
2022-08-05T16:30:28.824Z,2.40
2022-08-05T16:33:00.993Z,2.40
2022-08-05T16:35:32.055Z,2.60
2022-08-05T16:38:24.606Z,2.70
2022-08-05T16:40:55.097Z,2.40
2022-08-05T16:43:30.205Z,3.20
2022-08-05T16:46:05.379Z,2.50
2022-08-05T16:48:38.457Z,2.70
2022-08-05T16:51:09.692Z,2.40
2022-08-05T16:54:02.437Z,10.70
2022-08-05T16:56:30.145Z,6.00
2022-08-05T16:58:58.363Z,4.20
2022-08-05T17:01:26.672Z,3.10
2022-08-05T17:03:54.387Z,3.10
2022-08-05T17:06:24.689Z,3.40
2022-08-05T17:08:54.315Z,3.00
2022-08-05T17:11:23.756Z,3.30
2022-08-05T17:14:00.182Z,3.00
2022-08-05T17:16:36.821Z,3.80
2022-08-05T17:21:39.683Z,3.90
2022-08-05T17:24:19.554Z,3.60
2022-08-05T17:26:58.241Z,3.50
2022-08-05T17:29:33.098Z,3.50
2022-08-05T17:32:16.754Z,5.00
2022-08-05T17:34:48.147Z,4.20
2022-08-05T17:37:40.340Z,6.30
2022-08-05T17:40:14.429Z,5.40
2022-08-05T17:42:50.996Z,3.80
2022-08-05T17:45:22.174Z,3.70
2022-08-05T17:47:55.114Z,4.10
2022-08-05T17:50:28.637Z,3.80
2022-08-05T17:53:00.023Z,4.00
2022-08-05T17:55:38.425Z,4.30
2022-08-05T17:58:11.215Z,4.10
2022-08-05T18:00:44.935Z,4.20
2022-08-05T18:03:48.434Z,4.20
2022-08-05T18:06:11.005Z,4.40
2022-08-05T18:08:44.593Z,3.90
2022-08-05T18:13:57.467Z,4.30
2022-08-05T18:16:27.606Z,4.20
2022-08-05T18:18:55.273Z,4.20
2022-08-05T18:21:26.026Z,4.30
2022-08-05T18:23:55.877Z,4.40
2022-08-05T18:26:27.732Z,4.10
2022-08-05T18:28:59.976Z,4.60
2022-08-05T18:31:33.020Z,4.50
2022-08-05T18:34:05.746Z,4.60
2022-08-05T18:36:35.393Z,4.60
2022-08-05T18:39:22.428Z,4.70
2022-08-05T18:42:01.833Z,4.70
2022-08-05T18:44:35.476Z,4.40
2022-08-05T18:50:00.869Z,4.40
2022-08-05T18:52:50.913Z,4.40
2022-08-05T18:55:21.549Z,4.60
2022-08-05T18:57:53.232Z,5.10
2022-08-05T19:00:27.234Z,4.60
2022-08-05T19:03:03.697Z,5.60
2022-08-05T19:06:11.088Z,5.90
2022-08-05T19:08:30.733Z,5.60
2022-08-05T19:10:59.680Z,5.10
2022-08-05T19:13:36.043Z,5.40
2022-08-05T19:16:25.394Z,5.30
2022-08-05T19:18:56.588Z,5.70
2022-08-05T19:21:29.422Z,5.40
2022-08-05T19:24:06.524Z,5.50
2022-08-05T19:26:43.774Z,5.30
2022-08-05T19:29:36.015Z,5.00
2022-08-05T19:32:08.673Z,5.40
2022-08-05T19:34:39.692Z,5.90
2022-08-05T19:37:09.916Z,5.80
2022-08-05T19:39:47.740Z,5.90
2022-08-05T19:42:35.002Z,5.90
2022-08-05T19:45:05.624Z,5.70
2022-08-05T19:47:37.149Z,6.60
2022-08-05T19:50:07.791Z,7.20
2022-08-05T19:52:40.080Z,6.60
2022-08-05T19:56:12.476Z,5.90
2022-08-05T19:58:10.364Z,5.90
2022-08-05T20:00:44.082Z,5.90
2022-08-05T20:03:11.868Z,5.90
2022-08-05T20:05:43.269Z,5.90
2022-08-05T20:08:18.697Z,6.20
2022-08-05T20:10:49.339Z,5.90
2022-08-05T20:13:18.017Z,5.70
2022-08-05T20:15:58.086Z,5.20
2022-08-05T20:18:33.747Z,5.50
2022-08-05T20:21:06.744Z,5.70
2022-08-05T20:23:39.930Z,6.30
2022-08-05T20:26:24.815Z,5.50
2022-08-05T20:28:56.402Z,5.80
2022-08-05T20:31:36.988Z,5.80
2022-08-05T20:34:12.524Z,6.10
2022-08-05T20:36:43.418Z,6.00
2022-08-05T20:39:16.220Z,6.30
2022-08-05T20:41:47.747Z,5.80
2022-08-05T20:44:29.424Z,6.10
2022-08-05T20:47:01.438Z,5.90
2022-08-05T20:49:29.101Z,5.80
2022-08-05T20:51:58.029Z,5.90
2022-08-05T20:54:43.025Z,6.20
2022-08-05T20:57:14.363Z,6.50
2022-08-05T20:59:46.329Z,6.40
2022-08-05T21:02:29.847Z,6.30
2022-08-05T21:04:57.418Z,7.00
2022-08-05T21:07:25.140Z,6.90
2022-08-05T21:10:13.776Z,5.90
2022-08-05T21:12:41.481Z,6.10
2022-08-05T21:15:26.253Z,6.20
2022-08-05T21:18:01.845Z,7.90
2022-08-05T21:20:32.811Z,6.60
2022-08-05T21:23:01.387Z,16.30
2022-08-05T21:25:33.674Z,8.30
2022-08-05T21:28:03.104Z,7.90
2022-08-05T21:30:31.607Z,10.00
2022-08-05T21:32:59.811Z,8.90
2022-08-05T21:35:55.457Z,7.40
2022-08-05T21:38:19.123Z,6.00
2022-08-05T21:40:46.824Z,7.00
2022-08-05T21:43:17.873Z,6.40
2022-08-05T21:45:57.614Z,7.00
2022-08-05T21:48:28.850Z,6.40
2022-08-05T21:50:57.178Z,6.40
2022-08-05T21:53:27.196Z,6.70
2022-08-05T21:56:06.574Z,7.20
2022-08-05T21:58:48.271Z,7.50
2022-08-05T22:01:26.716Z,22.00
2022-08-05T22:03:54.431Z,21.60
2022-08-05T22:06:34.769Z,8.20
2022-08-05T22:09:13.805Z,8.00
2022-08-05T22:11:46.775Z,7.20
2022-08-05T22:14:37.460Z,7.00
2022-08-05T22:17:06.819Z,7.10
2022-08-05T22:20:02.225Z,6.00
2022-08-05T22:22:27.093Z,6.60
2022-08-05T22:25:18.090Z,6.40
2022-08-05T22:28:09.298Z,6.70
2022-08-05T22:30:55.668Z,6.60
2022-08-05T22:33:57.633Z,6.40
2022-08-05T22:36:16.687Z,6.50
2022-08-05T22:38:48.661Z,6.70
2022-08-05T22:41:26.493Z,5.70
2022-08-05T22:44:07.820Z,6.60
2022-08-05T22:46:40.011Z,7.00
2022-08-05T22:49:12.506Z,6.50
2022-08-05T22:52:04.395Z,6.00
2022-08-05T22:54:36.092Z,6.00
2022-08-05T22:57:05.863Z,6.10
2022-08-05T22:59:45.895Z,6.00
2022-08-05T23:02:18.097Z,5.60
2022-08-05T23:04:52.147Z,5.50
2022-08-05T23:07:21.717Z,6.10
2022-08-05T23:09:57.977Z,6.10
2022-08-05T23:12:32.566Z,5.40
2022-08-05T23:15:03.398Z,5.70
2022-08-05T23:17:37.225Z,5.50
2022-08-05T23:20:15.553Z,6.00
2022-08-05T23:22:47.595Z,5.30
2022-08-05T23:25:53.008Z,6.00
2022-08-05T23:28:07.084Z,5.60
2022-08-05T23:30:40.175Z,5.70
2022-08-05T23:33:22.334Z,5.50
2022-08-05T23:35:55.094Z,5.50
2022-08-05T23:38:26.052Z,5.40
2022-08-05T23:40:54.441Z,6.40
2022-08-05T23:43:25.572Z,5.90
2022-08-05T23:46:20.117Z,5.70
2022-08-05T23:49:00.941Z,5.70
2022-08-05T23:51:53.732Z,5.90
2022-08-05T23:54:30.467Z,5.60
2022-08-05T23:57:03.712Z,6.20
